sensor_id;sensor_type;location;lat;lon;timestamp;temperature;humidity
7686;DHT22;3885;51.474;-2.576;2024-01-30T00:07:51;11.30;74.50
7686;DHT22;3885;51.474;-2.576;2024-01-30T00:10:18;11.30;74.40
7686;DHT22;3885;51.474;-2.576;2024-01-30T00:15:13;11.20;74.40
7686;DHT22;3885;51.474;-2.576;2024-01-30T00:20:08;11.30;74.30
7686;DHT22;3885;51.474;-2.576;2024-01-30T00:25:04;11.30;74.40
7686;DHT22;3885;51.474;-2.576;2024-01-30T00:29:58;11.30;74.40
7686;DHT22;3885;51.474;-2.576;2024-01-30T00:34:52;11.30;74.40
7686;DHT22;3885;51.474;-2.576;2024-01-30T00:42:15;11.40;74.40
7686;DHT22;3885;51.474;-2.576;2024-01-30T00:47:09;11.30;74.40
7686;DHT22;3885;51.474;-2.576;2024-01-30T00:56:59;11.10;74.60
7686;DHT22;3885;51.474;-2.576;2024-01-30T00:59:26;11.10;74.70
7686;DHT22;3885;51.474;-2.576;2024-01-30T01:04:20;11.00;75.00
7686;DHT22;3885;51.474;-2.576;2024-01-30T01:06:47;10.80;75.20
7686;DHT22;3885;51.474;-2.576;2024-01-30T01:09:14;10.70;75.30
7686;DHT22;3885;51.474;-2.576;2024-01-30T01:11:43;10.50;75.40
7686;DHT22;3885;51.474;-2.576;2024-01-30T01:14:11;10.40;75.40
7686;DHT22;3885;51.474;-2.576;2024-01-30T01:19:05;10.10;75.30
7686;DHT22;3885;51.474;-2.576;2024-01-30T01:23:59;9.90;75.00
7686;DHT22;3885;51.474;-2.576;2024-01-30T01:28:53;9.80;75.10
7686;DHT22;3885;51.474;-2.576;2024-01-30T01:31:22;9.70;75.10
7686;DHT22;3885;51.474;-2.576;2024-01-30T01:33:50;9.60;75.10
7686;DHT22;3885;51.474;-2.576;2024-01-30T01:36:17;9.50;75.10
7686;DHT22;3885;51.474;-2.576;2024-01-30T01:41:11;9.40;75.00
7686;DHT22;3885;51.474;-2.576;2024-01-30T01:55:57;9.20;75.10
7686;DHT22;3885;51.474;-2.576;2024-01-30T01:58:27;9.20;75.10
7686;DHT22;3885;51.474;-2.576;2024-01-30T02:00:56;9.20;75.10
7686;DHT22;3885;51.474;-2.576;2024-01-30T02:03:24;9.10;75.10
7686;DHT22;3885;51.474;-2.576;2024-01-30T02:10:47;9.10;75.10
7686;DHT22;3885;51.474;-2.576;2024-01-30T02:13:14;9.00;75.10
7686;DHT22;3885;51.474;-2.576;2024-01-30T02:15:41;9.00;75.00
7686;DHT22;3885;51.474;-2.576;2024-01-30T02:18:08;9.10;75.00
7686;DHT22;3885;51.474;-2.576;2024-01-30T02:23:04;9.00;75.00
7686;DHT22;3885;51.474;-2.576;2024-01-30T02:27:59;9.10;75.00
7686;DHT22;3885;51.474;-2.576;2024-01-30T02:30:25;9.10;75.10
7686;DHT22;3885;51.474;-2.576;2024-01-30T02:35:19;9.10;75.20
7686;DHT22;3885;51.474;-2.576;2024-01-30T02:45:10;8.90;75.50
7686;DHT22;3885;51.474;-2.576;2024-01-30T02:47:38;9.00;75.50
7686;DHT22;3885;51.474;-2.576;2024-01-30T02:52:32;8.90;75.70
7686;DHT22;3885;51.474;-2.576;2024-01-30T02:57:29;8.90;75.90
7686;DHT22;3885;51.474;-2.576;2024-01-30T03:02:23;8.80;76.10
7686;DHT22;3885;51.474;-2.576;2024-01-30T03:07:17;8.80;76.20
7686;DHT22;3885;51.474;-2.576;2024-01-30T03:12:11;8.80;59.90
7686;DHT22;3885;51.474;-2.576;2024-01-30T03:14:40;8.80;59.70
7686;DHT22;3885;51.474;-2.576;2024-01-30T03:19:34;8.70;59.50
7686;DHT22;3885;51.474;-2.576;2024-01-30T03:24:28;8.60;59.40
7686;DHT22;3885;51.474;-2.576;2024-01-30T03:29:23;8.70;59.50
7686;DHT22;3885;51.474;-2.576;2024-01-30T03:31:51;8.60;59.50
7686;DHT22;3885;51.474;-2.576;2024-01-30T03:36:45;8.60;59.50
7686;DHT22;3885;51.474;-2.576;2024-01-30T03:41:42;8.60;59.50
7686;DHT22;3885;51.474;-2.576;2024-01-30T03:46:36;8.70;59.40
7686;DHT22;3885;51.474;-2.576;2024-01-30T03:49:04;8.70;59.30
7686;DHT22;3885;51.474;-2.576;2024-01-30T03:53:58;8.70;59.20
7686;DHT22;3885;51.474;-2.576;2024-01-30T03:58:52;8.70;58.90
7686;DHT22;3885;51.474;-2.576;2024-01-30T04:01:19;8.70;59.00
7686;DHT22;3885;51.474;-2.576;2024-01-30T04:08:42;8.80;58.90
7686;DHT22;3885;51.474;-2.576;2024-01-30T04:13:36;8.80;58.80
7686;DHT22;3885;51.474;-2.576;2024-01-30T04:18:30;8.70;58.70
7686;DHT22;3885;51.474;-2.576;2024-01-30T04:23:26;8.70;58.70
7686;DHT22;3885;51.474;-2.576;2024-01-30T04:25:53;8.70;58.70
7686;DHT22;3885;51.474;-2.576;2024-01-30T04:30:47;8.70;58.70
7686;DHT22;3885;51.474;-2.576;2024-01-30T04:38:10;8.60;58.60
7686;DHT22;3885;51.474;-2.576;2024-01-30T04:40:38;8.60;58.60
7686;DHT22;3885;51.474;-2.576;2024-01-30T04:50:26;8.50;58.50
7686;DHT22;3885;51.474;-2.576;2024-01-30T04:57:49;8.50;58.60
7686;DHT22;3885;51.474;-2.576;2024-01-30T05:02:43;8.60;58.40
7686;DHT22;3885;51.474;-2.576;2024-01-30T05:10:06;8.60;58.30
7686;DHT22;3885;51.474;-2.576;2024-01-30T05:12:33;8.60;58.20
7686;DHT22;3885;51.474;-2.576;2024-01-30T05:15:02;8.50;58.20
7686;DHT22;3885;51.474;-2.576;2024-01-30T05:19:56;8.50;58.20
7686;DHT22;3885;51.474;-2.576;2024-01-30T05:24:50;8.50;58.20
7686;DHT22;3885;51.474;-2.576;2024-01-30T05:29:45;8.50;58.20
7686;DHT22;3885;51.474;-2.576;2024-01-30T05:42:02;8.50;58.20
7686;DHT22;3885;51.474;-2.576;2024-01-30T05:46:56;8.50;58.20
7686;DHT22;3885;51.474;-2.576;2024-01-30T05:49:25;8.60;58.20
7686;DHT22;3885;51.474;-2.576;2024-01-30T05:54:19;8.50;58.10
7686;DHT22;3885;51.474;-2.576;2024-01-30T05:59:13;8.50;58.10
7686;DHT22;3885;51.474;-2.576;2024-01-30T06:01:45;8.50;58.20
7686;DHT22;3885;51.474;-2.576;2024-01-30T06:14:03;8.30;58.40
7686;DHT22;3885;51.474;-2.576;2024-01-30T06:18:57;8.30;58.60
7686;DHT22;3885;51.474;-2.576;2024-01-30T06:21:24;8.30;58.80
7686;DHT22;3885;51.474;-2.576;2024-01-30T06:23:53;8.30;58.90
7686;DHT22;3885;51.474;-2.576;2024-01-30T06:31:14;8.30;59.10
7686;DHT22;3885;51.474;-2.576;2024-01-30T06:36:08;8.30;59.20
7686;DHT22;3885;51.474;-2.576;2024-01-30T06:41:04;8.30;59.20
7686;DHT22;3885;51.474;-2.576;2024-01-30T06:43:31;8.20;59.20
7686;DHT22;3885;51.474;-2.576;2024-01-30T06:48:25;8.30;59.30
7686;DHT22;3885;51.474;-2.576;2024-01-30T06:50:53;8.30;59.30
7686;DHT22;3885;51.474;-2.576;2024-01-30T06:55:47;8.30;59.20
7686;DHT22;3885;51.474;-2.576;2024-01-30T06:58:15;8.20;59.20
7686;DHT22;3885;51.474;-2.576;2024-01-30T07:03:10;8.20;59.30
7686;DHT22;3885;51.474;-2.576;2024-01-30T07:05:36;8.20;59.30
7686;DHT22;3885;51.474;-2.576;2024-01-30T07:08:04;8.20;59.30
7686;DHT22;3885;51.474;-2.576;2024-01-30T07:13:00;8.20;59.30
7686;DHT22;3885;51.474;-2.576;2024-01-30T07:17:55;8.20;59.30
7686;DHT22;3885;51.474;-2.576;2024-01-30T07:25:17;8.10;59.40
7686;DHT22;3885;51.474;-2.576;2024-01-30T07:27:44;8.10;59.40
7686;DHT22;3885;51.474;-2.576;2024-01-30T07:32:39;8.10;59.40
7686;DHT22;3885;51.474;-2.576;2024-01-30T07:35:07;8.10;59.50
7686;DHT22;3885;51.474;-2.576;2024-01-30T07:42:29;8.10;59.60
7686;DHT22;3885;51.474;-2.576;2024-01-30T07:52:19;8.00;59.50
7686;DHT22;3885;51.474;-2.576;2024-01-30T07:57:14;8.00;59.50
7686;DHT22;3885;51.474;-2.576;2024-01-30T07:59:42;8.00;59.40
7686;DHT22;3885;51.474;-2.576;2024-01-30T08:02:10;8.00;59.40
7686;DHT22;3885;51.474;-2.576;2024-01-30T08:04:37;8.00;59.50
7686;DHT22;3885;51.474;-2.576;2024-01-30T08:07:05;7.90;59.40
7686;DHT22;3885;51.474;-2.576;2024-01-30T08:14:27;8.00;59.30
7686;DHT22;3885;51.474;-2.576;2024-01-30T08:19:21;8.10;59.40
7686;DHT22;3885;51.474;-2.576;2024-01-30T08:26:44;8.10;59.20
7686;DHT22;3885;51.474;-2.576;2024-01-30T08:31:38;8.10;59.00
7686;DHT22;3885;51.474;-2.576;2024-01-30T08:36:32;8.10;58.90
7686;DHT22;3885;51.474;-2.576;2024-01-30T08:43:55;8.00;58.80
7686;DHT22;3885;51.474;-2.576;2024-01-30T08:48:49;7.90;58.80
7686;DHT22;3885;51.474;-2.576;2024-01-30T09:01:06;7.80;58.80
7686;DHT22;3885;51.474;-2.576;2024-01-30T09:08:28;7.90;58.80
7686;DHT22;3885;51.474;-2.576;2024-01-30T09:10:55;8.00;58.80
7686;DHT22;3885;51.474;-2.576;2024-01-30T09:13:22;8.10;58.90
7686;DHT22;3885;51.474;-2.576;2024-01-30T09:20:45;8.50;58.70
7686;DHT22;3885;51.474;-2.576;2024-01-30T09:25:40;8.50;58.40
7686;DHT22;3885;51.474;-2.576;2024-01-30T09:30:34;8.50;58.10
7686;DHT22;3885;51.474;-2.576;2024-01-30T09:33:03;8.50;58.10
7686;DHT22;3885;51.474;-2.576;2024-01-30T09:40:25;8.50;58.00
7686;DHT22;3885;51.474;-2.576;2024-01-30T09:50:15;8.50;58.00
7686;DHT22;3885;51.474;-2.576;2024-01-30T10:02:34;8.60;58.00
7686;DHT22;3885;51.474;-2.576;2024-01-30T10:09:57;8.80;57.90
7686;DHT22;3885;51.474;-2.576;2024-01-30T10:12:26;8.80;57.90
7686;DHT22;3885;51.474;-2.576;2024-01-30T10:17:20;8.70;57.70
7686;DHT22;3885;51.474;-2.576;2024-01-30T10:39:32;8.80;57.60
7686;DHT22;3885;51.474;-2.576;2024-01-30T10:42:04;8.90;57.80
7686;DHT22;3885;51.474;-2.576;2024-01-30T10:57:00;9.10;57.50
7686;DHT22;3885;51.474;-2.576;2024-01-30T10:59:31;9.10;57.40
7686;DHT22;3885;51.474;-2.576;2024-01-30T11:01:59;9.10;57.30
7686;DHT22;3885;51.474;-2.576;2024-01-30T11:04:27;9.10;57.30
7686;DHT22;3885;51.474;-2.576;2024-01-30T11:11:49;9.00;57.20
7686;DHT22;3885;51.474;-2.576;2024-01-30T11:14:22;9.00;57.30
7686;DHT22;3885;51.474;-2.576;2024-01-30T11:16:50;8.90;57.30
7686;DHT22;3885;51.474;-2.576;2024-01-30T11:19:22;8.90;57.30
7686;DHT22;3885;51.474;-2.576;2024-01-30T11:36:52;8.90;57.50
7686;DHT22;3885;51.474;-2.576;2024-01-30T11:39:25;9.00;57.30
7686;DHT22;3885;51.474;-2.576;2024-01-30T11:44:20;9.10;57.30
7686;DHT22;3885;51.474;-2.576;2024-01-30T11:49:16;9.10;57.40
7686;DHT22;3885;51.474;-2.576;2024-01-30T11:54:10;9.20;57.30
7686;DHT22;3885;51.474;-2.576;2024-01-30T12:01:32;9.30;57.10
7686;DHT22;3885;51.474;-2.576;2024-01-30T12:08:59;9.40;57.00
7686;DHT22;3885;51.474;-2.576;2024-01-30T12:13:57;9.50;56.80
7686;DHT22;3885;51.474;-2.576;2024-01-30T12:21:28;9.20;55.30
7686;DHT22;3885;51.474;-2.576;2024-01-30T12:26:24;9.20;55.00
7686;DHT22;3885;51.474;-2.576;2024-01-30T12:31:25;9.20;54.60
7686;DHT22;3885;51.474;-2.576;2024-01-30T12:46:13;9.30;54.40
7686;DHT22;3885;51.474;-2.576;2024-01-30T12:51:07;9.50;54.20
7686;DHT22;3885;51.474;-2.576;2024-01-30T12:58:30;9.60;54.00
7686;DHT22;3885;51.474;-2.576;2024-01-30T13:13:15;9.80;53.90
7686;DHT22;3885;51.474;-2.576;2024-01-30T13:20:37;9.90;53.70
7686;DHT22;3885;51.474;-2.576;2024-01-30T13:25:31;10.00;53.30
7686;DHT22;3885;51.474;-2.576;2024-01-30T13:32:54;10.00;53.30
7686;DHT22;3885;51.474;-2.576;2024-01-30T13:52:35;9.90;53.40
7686;DHT22;3885;51.474;-2.576;2024-01-30T14:00:00;9.80;53.40
7686;DHT22;3885;51.474;-2.576;2024-01-30T14:12:17;10.00;53.20
7686;DHT22;3885;51.474;-2.576;2024-01-30T14:17:11;10.00;53.20
7686;DHT22;3885;51.474;-2.576;2024-01-30T14:27:03;10.10;53.30
7686;DHT22;3885;51.474;-2.576;2024-01-30T14:39:20;9.90;54.00
7686;DHT22;3885;51.474;-2.576;2024-01-30T14:46:42;10.10;54.20
7686;DHT22;3885;51.474;-2.576;2024-01-30T14:51:36;10.00;54.10
7686;DHT22;3885;51.474;-2.576;2024-01-30T14:54:03;9.90;54.20
7686;DHT22;3885;51.474;-2.576;2024-01-30T14:58:59;9.90;53.90
7686;DHT22;3885;51.474;-2.576;2024-01-30T15:03:53;9.80;53.90
7686;DHT22;3885;51.474;-2.576;2024-01-30T15:06:21;9.80;53.90
7686;DHT22;3885;51.474;-2.576;2024-01-30T15:08:49;9.80;53.70
7686;DHT22;3885;51.474;-2.576;2024-01-30T15:16:12;9.70;52.90
7686;DHT22;3885;51.474;-2.576;2024-01-30T15:40:55;9.70;52.50
7686;DHT22;3885;51.474;-2.576;2024-01-30T15:45:49;9.60;52.50
7686;DHT22;3885;51.474;-2.576;2024-01-30T15:50:45;9.60;52.50
7686;DHT22;3885;51.474;-2.576;2024-01-30T16:00:34;9.70;52.60
7686;DHT22;3885;51.474;-2.576;2024-01-30T16:15:20;9.40;52.50
7686;DHT22;3885;51.474;-2.576;2024-01-30T16:20:14;9.50;52.50
7686;DHT22;3885;51.474;-2.576;2024-01-30T16:25:10;9.50;52.60
7686;DHT22;3885;51.474;-2.576;2024-01-30T16:30:05;9.50;52.40
7686;DHT22;3885;51.474;-2.576;2024-01-30T16:35:01;9.10;52.20
7686;DHT22;3885;51.474;-2.576;2024-01-30T16:39:57;9.10;52.40
7686;DHT22;3885;51.474;-2.576;2024-01-30T16:47:18;9.00;52.50
7686;DHT22;3885;51.474;-2.576;2024-01-30T16:49:46;9.00;52.50
7686;DHT22;3885;51.474;-2.576;2024-01-30T16:54:43;8.90;52.70
7686;DHT22;3885;51.474;-2.576;2024-01-30T17:02:05;9.00;52.70
7686;DHT22;3885;51.474;-2.576;2024-01-30T17:09:28;9.10;52.90
7686;DHT22;3885;51.474;-2.576;2024-01-30T17:11:55;9.10;53.00
7686;DHT22;3885;51.474;-2.576;2024-01-30T17:14:23;9.10;53.00
7686;DHT22;3885;51.474;-2.576;2024-01-30T17:21:45;9.10;53.10
7686;DHT22;3885;51.474;-2.576;2024-01-30T17:26:41;8.90;53.30
7686;DHT22;3885;51.474;-2.576;2024-01-30T17:29:10;8.90;53.30
7686;DHT22;3885;51.474;-2.576;2024-01-30T17:31:40;8.90;53.40
7686;DHT22;3885;51.474;-2.576;2024-01-30T17:36:36;8.90;53.50
7686;DHT22;3885;51.474;-2.576;2024-01-30T17:41:32;8.80;53.50
7686;DHT22;3885;51.474;-2.576;2024-01-30T17:44:01;8.80;53.50
7686;DHT22;3885;51.474;-2.576;2024-01-30T17:51:24;8.80;53.50
7686;DHT22;3885;51.474;-2.576;2024-01-30T18:03:40;8.90;54.00
7686;DHT22;3885;51.474;-2.576;2024-01-30T18:11:08;8.80;53.80
7686;DHT22;3885;51.474;-2.576;2024-01-30T18:16:02;8.80;53.60
7686;DHT22;3885;51.474;-2.576;2024-01-30T18:23:25;8.80;53.40
7686;DHT22;3885;51.474;-2.576;2024-01-30T18:28:25;8.90;53.30
7686;DHT22;3885;51.474;-2.576;2024-01-30T18:35:47;8.80;53.20
7686;DHT22;3885;51.474;-2.576;2024-01-30T18:43:09;8.80;53.00
7686;DHT22;3885;51.474;-2.576;2024-01-30T18:48:04;8.80;53.10
7686;DHT22;3885;51.474;-2.576;2024-01-30T18:57:54;8.80;53.20
7686;DHT22;3885;51.474;-2.576;2024-01-30T19:02:48;8.80;53.20
7686;DHT22;3885;51.474;-2.576;2024-01-30T19:07:43;8.80;53.20
7686;DHT22;3885;51.474;-2.576;2024-01-30T19:12:42;8.80;53.20
7686;DHT22;3885;51.474;-2.576;2024-01-30T19:15:11;8.80;53.30
7686;DHT22;3885;51.474;-2.576;2024-01-30T19:22:34;8.70;53.30
7686;DHT22;3885;51.474;-2.576;2024-01-30T19:29:57;8.60;53.50
7686;DHT22;3885;51.474;-2.576;2024-01-30T19:32:26;8.80;54.00
7686;DHT22;3885;51.474;-2.576;2024-01-30T19:37:20;8.80;53.80
7686;DHT22;3885;51.474;-2.576;2024-01-30T19:39:50;8.70;53.50
7686;DHT22;3885;51.474;-2.576;2024-01-30T19:44:44;8.60;53.40
7686;DHT22;3885;51.474;-2.576;2024-01-30T19:47:11;8.50;53.40
7686;DHT22;3885;51.474;-2.576;2024-01-30T19:52:08;8.60;53.30
7686;DHT22;3885;51.474;-2.576;2024-01-30T19:54:35;8.60;53.30
7686;DHT22;3885;51.474;-2.576;2024-01-30T19:57:04;8.60;53.30
7686;DHT22;3885;51.474;-2.576;2024-01-30T19:59:31;8.60;53.30
7686;DHT22;3885;51.474;-2.576;2024-01-30T20:04:27;8.50;53.20
7686;DHT22;3885;51.474;-2.576;2024-01-30T20:06:55;8.50;53.10
7686;DHT22;3885;51.474;-2.576;2024-01-30T20:11:49;8.50;53.10
7686;DHT22;3885;51.474;-2.576;2024-01-30T20:16:43;8.40;53.10
7686;DHT22;3885;51.474;-2.576;2024-01-30T20:19:11;8.40;53.20
7686;DHT22;3885;51.474;-2.576;2024-01-30T20:21:38;8.40;53.10
7686;DHT22;3885;51.474;-2.576;2024-01-30T20:36:24;8.10;53.20
7686;DHT22;3885;51.474;-2.576;2024-01-30T20:38:51;8.10;53.20
7686;DHT22;3885;51.474;-2.576;2024-01-30T20:41:19;8.00;53.20
7686;DHT22;3885;51.474;-2.576;2024-01-30T20:46:14;7.90;53.20
7686;DHT22;3885;51.474;-2.576;2024-01-30T21:03:29;7.40;53.50
7686;DHT22;3885;51.474;-2.576;2024-01-30T21:05:57;7.30;53.60
7686;DHT22;3885;51.474;-2.576;2024-01-30T21:20:44;6.90;53.60
7686;DHT22;3885;51.474;-2.576;2024-01-30T21:23:11;6.70;53.60
7686;DHT22;3885;51.474;-2.576;2024-01-30T21:25:39;6.60;53.60
7686;DHT22;3885;51.474;-2.576;2024-01-30T21:33:02;6.20;53.70
7686;DHT22;3885;51.474;-2.576;2024-01-30T21:35:29;6.10;53.70
7686;DHT22;3885;51.474;-2.576;2024-01-30T21:45:18;5.60;53.90
7686;DHT22;3885;51.474;-2.576;2024-01-30T21:50:17;5.60;54.20
7686;DHT22;3885;51.474;-2.576;2024-01-30T21:52:44;5.50;54.20
7686;DHT22;3885;51.474;-2.576;2024-01-30T22:02:36;5.20;54.40
7686;DHT22;3885;51.474;-2.576;2024-01-30T22:12:27;4.80;54.60
7686;DHT22;3885;51.474;-2.576;2024-01-30T22:14:53;4.70;54.60
7686;DHT22;3885;51.474;-2.576;2024-01-30T22:19:48;4.50;54.70
7686;DHT22;3885;51.474;-2.576;2024-01-30T22:24:43;4.30;54.80
7686;DHT22;3885;51.474;-2.576;2024-01-30T22:29:38;4.20;55.00
7686;DHT22;3885;51.474;-2.576;2024-01-30T22:34:33;4.00;55.10
7686;DHT22;3885;51.474;-2.576;2024-01-30T22:39:27;3.90;55.10
7686;DHT22;3885;51.474;-2.576;2024-01-30T22:41:55;3.90;55.10
7686;DHT22;3885;51.474;-2.576;2024-01-30T22:51:44;3.70;55.30
7686;DHT22;3885;51.474;-2.576;2024-01-30T22:54:14;3.70;55.40
7686;DHT22;3885;51.474;-2.576;2024-01-30T22:56:42;3.60;55.40
7686;DHT22;3885;51.474;-2.576;2024-01-30T22:59:10;3.60;55.40
7686;DHT22;3885;51.474;-2.576;2024-01-30T23:01:37;3.60;55.50
7686;DHT22;3885;51.474;-2.576;2024-01-30T23:06:33;3.50;55.50
7686;DHT22;3885;51.474;-2.576;2024-01-30T23:09:00;3.50;55.50
7686;DHT22;3885;51.474;-2.576;2024-01-30T23:13:54;3.30;55.50
7686;DHT22;3885;51.474;-2.576;2024-01-30T23:16:22;3.30;55.60
7686;DHT22;3885;51.474;-2.576;2024-01-30T23:21:16;3.10;55.70
7686;DHT22;3885;51.474;-2.576;2024-01-30T23:23:44;3.10;55.80
7686;DHT22;3885;51.474;-2.576;2024-01-30T23:28:38;3.10;55.90
7686;DHT22;3885;51.474;-2.576;2024-01-30T23:31:05;3.10;55.90
7686;DHT22;3885;51.474;-2.576;2024-01-30T23:33:33;3.10;56.00
7686;DHT22;3885;51.474;-2.576;2024-01-30T23:38:27;3.00;56.20
7686;DHT22;3885;51.474;-2.576;2024-01-30T23:40:55;3.10;56.20
7686;DHT22;3885;51.474;-2.576;2024-01-30T23:45:49;3.20;56.30
7686;DHT22;3885;51.474;-2.576;2024-01-30T23:53:12;3.30;56.50
7686;DHT22;3885;51.474;-2.576;2024-01-30T23:58:06;3.40;56.50
